createdAt,value
2018-05-12T00:00:59.310Z,17.74
2018-05-12T00:03:26.709Z,17.82
2018-05-12T00:05:54.305Z,17.85
2018-05-12T00:08:21.609Z,17.75
2018-05-12T00:10:49.019Z,17.65
2018-05-12T00:13:16.470Z,17.22
2018-05-12T00:15:43.859Z,17.14
2018-05-12T00:18:11.350Z,17.11
2018-05-12T00:20:38.753Z,17.20
2018-05-12T00:23:06.146Z,17.17
2018-05-12T00:25:33.531Z,17.21
2018-05-12T00:28:00.918Z,17.33
2018-05-12T00:30:28.313Z,17.35
2018-05-12T00:32:55.777Z,17.44
2018-05-12T00:35:23.181Z,17.37
2018-05-12T00:37:50.574Z,17.25
2018-05-12T00:40:18.055Z,17.05
2018-05-12T00:42:45.429Z,16.94
2018-05-12T00:45:12.862Z,16.75
2018-05-12T00:47:40.315Z,16.71
2018-05-12T00:50:07.714Z,16.86
2018-05-12T00:52:35.113Z,16.78
2018-05-12T00:55:02.502Z,16.67
2018-05-12T00:57:29.929Z,16.79
2018-05-12T00:59:57.335Z,16.41
2018-05-12T01:02:24.748Z,16.32
2018-05-12T01:04:52.169Z,16.30
2018-05-12T01:07:19.667Z,16.28
2018-05-12T01:09:47.048Z,16.35
2018-05-12T01:12:14.474Z,16.44
2018-05-12T01:14:41.948Z,16.65
2018-05-12T01:17:09.385Z,16.84
2018-05-12T01:19:36.861Z,16.95
2018-05-12T01:22:04.243Z,16.98
2018-05-12T01:24:31.657Z,16.69
2018-05-12T01:26:59.118Z,16.72
2018-05-12T01:29:26.503Z,16.80
2018-05-12T01:31:53.930Z,16.91
2018-05-12T01:34:21.318Z,17.04
2018-05-12T01:36:48.724Z,17.19
2018-05-12T01:39:16.117Z,17.01
2018-05-12T01:41:43.537Z,17.07
2018-05-12T01:44:10.995Z,17.06
2018-05-12T01:46:38.401Z,16.73
2018-05-12T01:49:05.793Z,16.80
2018-05-12T01:51:33.197Z,16.73
2018-05-12T01:54:00.596Z,16.68
2018-05-12T01:56:28.002Z,16.89
2018-05-12T01:58:55.389Z,16.97
2018-05-12T02:01:22.893Z,16.61
2018-05-12T02:03:50.284Z,16.55
2018-05-12T02:06:17.681Z,16.36
2018-05-12T02:08:45.074Z,16.27
2018-05-12T02:11:12.484Z,16.09
2018-05-12T02:13:39.905Z,15.94
2018-05-12T02:16:07.303Z,16.05
2018-05-12T02:18:34.781Z,16.27
2018-05-12T02:21:02.236Z,16.47
2018-05-12T02:23:29.697Z,16.51
2018-05-12T02:25:57.105Z,16.60
2018-05-12T02:28:24.538Z,16.54
2018-05-12T02:30:51.987Z,16.49
2018-05-12T02:33:19.369Z,16.45
2018-05-12T02:35:46.791Z,16.23
2018-05-12T02:38:14.235Z,16.11
2018-05-12T02:40:41.689Z,16.21
2018-05-12T02:43:09.160Z,16.22
2018-05-12T02:45:36.602Z,16.37
2018-05-12T02:48:03.991Z,16.38
2018-05-12T02:50:31.414Z,16.18
2018-05-12T02:52:58.808Z,16.26
2018-05-12T02:55:26.280Z,16.24
2018-05-12T02:57:53.721Z,16.22
2018-05-12T03:00:21.193Z,16.10
2018-05-12T03:02:48.584Z,16.06
2018-05-12T03:05:16.116Z,16.11
2018-05-12T03:07:43.518Z,16.04
2018-05-12T03:10:11.028Z,16.06
2018-05-12T03:12:38.423Z,16.15
2018-05-12T03:15:05.849Z,16.28
2018-05-12T03:17:33.296Z,16.48
2018-05-12T03:20:00.748Z,16.49
2018-05-12T03:22:28.153Z,16.46
2018-05-12T03:24:55.642Z,16.47
2018-05-12T03:27:23.042Z,16.33
2018-05-12T03:29:50.465Z,16.31
2018-05-12T03:32:17.925Z,16.34
2018-05-12T03:34:45.505Z,16.36
2018-05-12T03:37:12.903Z,16.33
2018-05-12T03:39:40.297Z,16.40
2018-05-12T03:42:07.798Z,16.31
2018-05-12T03:44:35.192Z,16.33
2018-05-12T03:47:03.362Z,16.45
2018-05-12T03:49:30.762Z,16.45
2018-05-12T03:51:58.169Z,16.23
2018-05-12T03:54:25.588Z,16.11
2018-05-12T03:56:53.030Z,16.16
2018-05-12T03:59:20.437Z,16.14
2018-05-12T04:01:47.937Z,16.25
2018-05-12T04:04:27.153Z,16.08
2018-05-12T04:07:06.589Z,16.05
2018-05-12T04:09:42.559Z,16.11
2018-05-12T04:12:29.761Z,16.02
2018-05-12T04:14:57.612Z,15.93
2018-05-12T04:17:25.085Z,15.95
2018-05-12T04:19:52.913Z,16.05
2018-05-12T04:22:20.316Z,15.98
2018-05-12T04:24:47.711Z,16.02
2018-05-12T04:27:15.112Z,16.16
2018-05-12T04:29:42.533Z,16.25
2018-05-12T04:32:09.945Z,16.35
2018-05-12T04:34:37.454Z,16.39
2018-05-12T04:37:04.929Z,16.47
2018-05-12T04:39:32.326Z,16.48
2018-05-12T04:41:59.752Z,16.41
2018-05-12T04:44:27.143Z,16.51
2018-05-12T04:46:54.549Z,16.44
2018-05-12T04:49:21.996Z,16.56
2018-05-12T04:51:49.449Z,16.45
2018-05-12T04:54:16.923Z,16.42
2018-05-12T04:56:44.305Z,16.49
2018-05-12T04:59:11.842Z,16.41
2018-05-12T05:01:39.590Z,16.43
2018-05-12T05:04:07.045Z,16.27
2018-05-12T05:06:34.496Z,16.41
2018-05-12T05:09:01.910Z,16.52
2018-05-12T05:11:29.300Z,16.46
2018-05-12T05:13:56.709Z,16.62
2018-05-12T05:16:24.120Z,16.69
2018-05-12T05:18:51.520Z,16.68
2018-05-12T05:21:19.028Z,16.53
2018-05-12T05:23:46.421Z,16.57
2018-05-12T05:26:13.813Z,16.64
2018-05-12T05:28:41.302Z,16.75
2018-05-12T05:31:08.778Z,16.80
2018-05-12T05:33:36.199Z,16.78
2018-05-12T05:36:03.687Z,16.85
2018-05-12T05:38:31.087Z,16.92
2018-05-12T05:40:58.589Z,17.11
2018-05-12T05:43:26.075Z,17.28
2018-05-12T05:45:53.469Z,17.33
2018-05-12T05:48:20.872Z,17.32
2018-05-12T05:50:48.737Z,17.39
2018-05-12T05:53:16.141Z,17.64
2018-05-12T05:55:43.533Z,17.88
2018-05-12T05:58:11.004Z,17.99
2018-05-12T06:00:38.456Z,18.03
2018-05-12T06:03:05.921Z,17.99
2018-05-12T06:05:33.320Z,18.19
2018-05-12T06:08:00.729Z,18.25
2018-05-12T06:10:28.129Z,18.30
2018-05-12T06:12:55.555Z,18.35
2018-05-12T06:15:22.990Z,18.16
2018-05-12T06:17:50.392Z,18.22
2018-05-12T06:20:17.817Z,18.50
2018-05-12T06:22:45.270Z,18.48
2018-05-12T06:25:12.660Z,18.53
2018-05-12T06:27:40.065Z,18.36
2018-05-12T06:30:07.537Z,18.33
2018-05-12T06:32:34.957Z,18.17
2018-05-12T06:35:02.344Z,18.42
2018-05-12T06:37:29.797Z,18.31
2018-05-12T06:39:57.201Z,18.47
2018-05-12T06:42:24.609Z,18.64
2018-05-12T06:44:52.021Z,18.62
2018-05-12T06:47:19.422Z,18.61
2018-05-12T06:49:46.873Z,18.67
2018-05-12T06:52:14.328Z,18.61
2018-05-12T06:54:41.729Z,18.74
2018-05-12T06:57:09.121Z,18.56
2018-05-12T06:59:36.611Z,18.57
2018-05-12T07:02:03.996Z,18.63
2018-05-12T07:04:31.405Z,18.42
2018-05-12T07:06:58.793Z,18.39
2018-05-12T07:09:26.190Z,18.65
2018-05-12T07:11:53.577Z,18.67
2018-05-12T07:14:20.965Z,18.52
2018-05-12T07:16:48.356Z,18.49
2018-05-12T07:19:15.766Z,18.35
2018-05-12T07:21:43.188Z,18.27
2018-05-12T07:24:11.572Z,18.17
2018-05-12T07:26:38.970Z,18.24
2018-05-12T07:29:06.361Z,18.10
2018-05-12T07:31:33.848Z,17.90
2018-05-12T07:34:01.237Z,17.83
2018-05-12T07:36:28.656Z,17.80
2018-05-12T07:38:56.122Z,18.01
2018-05-12T07:41:23.505Z,18.12
2018-05-12T07:43:50.903Z,18.28
2018-05-12T07:46:18.406Z,18.36
2018-05-12T07:48:45.795Z,18.55
2018-05-12T07:51:13.185Z,18.62
2018-05-12T07:53:40.674Z,18.76
2018-05-12T07:56:08.045Z,18.58
2018-05-12T07:58:35.470Z,18.60
2018-05-12T08:01:02.879Z,18.82
2018-05-12T08:03:30.298Z,18.80
2018-05-12T08:05:57.755Z,18.73
2018-05-12T08:08:25.137Z,18.54
2018-05-12T08:10:52.525Z,18.85
2018-05-12T08:13:19.919Z,18.80
2018-05-12T08:15:47.308Z,18.69
2018-05-12T08:18:14.716Z,18.58
2018-05-12T08:20:42.113Z,18.65
2018-05-12T08:23:09.506Z,18.76
2018-05-12T08:25:36.885Z,18.96
2018-05-12T08:28:04.291Z,18.94
2018-05-12T08:30:31.698Z,18.90
2018-05-12T08:32:59.149Z,18.93
2018-05-12T08:35:26.546Z,19.03
2018-05-12T08:37:53.978Z,19.09
2018-05-12T08:40:21.485Z,19.13
2018-05-12T08:42:48.781Z,19.23
2018-05-12T08:45:16.176Z,19.41
2018-05-12T08:47:43.604Z,19.49
2018-05-12T08:50:11.055Z,19.57
2018-05-12T08:52:38.457Z,19.71
2018-05-12T08:55:05.913Z,19.83
2018-05-12T08:57:33.302Z,20.15
2018-05-12T09:00:00.698Z,20.51
2018-05-12T09:02:28.105Z,21.11
2018-05-12T09:04:55.501Z,21.60
2018-05-12T09:07:22.881Z,22.19
2018-05-12T09:09:50.289Z,22.67
2018-05-12T09:12:17.676Z,23.16
2018-05-12T09:14:45.073Z,23.81
2018-05-12T09:17:12.561Z,23.83
2018-05-12T09:19:39.972Z,23.70
2018-05-12T09:22:07.365Z,23.17
2018-05-12T09:24:34.832Z,22.99
2018-05-12T09:27:02.292Z,23.35
2018-05-12T09:29:29.689Z,23.37
2018-05-12T09:31:57.109Z,23.27
2018-05-12T09:34:24.505Z,23.61
2018-05-12T09:36:51.900Z,24.14
2018-05-12T09:39:19.288Z,24.13
2018-05-12T09:41:46.677Z,23.93
2018-05-12T09:44:14.069Z,24.06
2018-05-12T09:46:41.457Z,23.91
2018-05-12T09:49:08.854Z,23.66
2018-05-12T09:51:36.350Z,23.48
2018-05-12T09:54:03.810Z,23.56
2018-05-12T09:56:31.207Z,23.67
2018-05-12T09:58:58.601Z,23.76
2018-05-12T10:01:25.987Z,24.04
2018-05-12T10:03:53.380Z,24.39
2018-05-12T10:06:20.776Z,24.24
2018-05-12T10:08:48.162Z,24.21
2018-05-12T10:11:15.592Z,23.92
2018-05-12T10:13:42.985Z,23.95
2018-05-12T10:16:10.373Z,24.13
2018-05-12T10:18:37.757Z,24.20
2018-05-12T10:21:05.156Z,24.09
2018-05-12T10:23:32.577Z,24.04
2018-05-12T10:26:00.038Z,24.21
2018-05-12T10:28:27.499Z,24.39
2018-05-12T10:30:54.888Z,24.40
2018-05-12T10:33:22.274Z,24.26
2018-05-12T10:35:49.765Z,24.34
2018-05-12T10:38:17.153Z,24.49
2018-05-12T10:40:44.606Z,24.21
2018-05-12T10:43:11.995Z,24.10
2018-05-12T10:45:39.385Z,24.08
2018-05-12T10:48:06.965Z,24.53
2018-05-12T10:50:34.356Z,24.37
2018-05-12T10:53:01.752Z,24.10
2018-05-12T10:55:29.221Z,23.89
2018-05-12T10:57:56.606Z,23.59
2018-05-12T11:00:24.002Z,23.15
2018-05-12T11:02:51.492Z,23.23
2018-05-12T11:05:18.892Z,23.28
2018-05-12T11:07:46.304Z,23.32
2018-05-12T11:10:13.757Z,23.21
2018-05-12T11:12:41.214Z,23.51
2018-05-12T11:15:08.669Z,23.42
2018-05-12T11:17:36.061Z,23.36
2018-05-12T11:20:03.455Z,23.48
2018-05-12T11:22:31.004Z,23.35
2018-05-12T11:24:58.403Z,23.61
2018-05-12T11:27:25.867Z,23.82
2018-05-12T11:29:53.273Z,23.65
2018-05-12T11:32:20.661Z,23.45
2018-05-12T11:34:48.125Z,23.10
2018-05-12T11:37:15.514Z,23.13
2018-05-12T11:39:42.909Z,23.16
2018-05-12T11:42:10.297Z,23.28
2018-05-12T11:44:37.821Z,23.34
2018-05-12T11:47:05.253Z,23.58
2018-05-12T11:49:32.661Z,23.93
2018-05-12T11:52:00.125Z,24.12
2018-05-12T11:54:27.521Z,24.00
2018-05-12T11:56:54.917Z,24.06
2018-05-12T11:59:22.389Z,24.12
2018-05-12T12:01:49.878Z,23.98
2018-05-12T12:04:17.314Z,23.96
2018-05-12T12:06:44.808Z,24.02
2018-05-12T12:09:12.213Z,23.81
2018-05-12T12:11:39.615Z,23.82
2018-05-12T12:14:07.001Z,23.96
2018-05-12T12:16:34.434Z,24.03
2018-05-12T12:19:01.793Z,23.97
2018-05-12T12:21:29.201Z,23.70
2018-05-12T12:23:56.621Z,23.62
2018-05-12T12:26:24.033Z,23.68
2018-05-12T12:28:51.429Z,23.82
2018-05-12T12:31:18.834Z,23.90
2018-05-12T12:33:46.304Z,23.94
2018-05-12T12:36:13.702Z,23.57
2018-05-12T12:38:41.093Z,23.71
2018-05-12T12:41:08.497Z,23.99
2018-05-12T12:43:35.882Z,23.90
2018-05-12T12:46:03.301Z,23.98
2018-05-12T12:48:30.742Z,24.04
2018-05-12T12:50:58.153Z,24.02
2018-05-12T12:53:25.557Z,24.15
2018-05-12T12:55:52.949Z,24.08
2018-05-12T12:58:20.382Z,24.05
2018-05-12T13:00:47.791Z,23.84
2018-05-12T13:03:15.177Z,23.61
2018-05-12T13:05:42.575Z,23.85
2018-05-12T13:08:09.962Z,24.08
2018-05-12T13:10:37.354Z,24.11
2018-05-12T13:13:04.737Z,24.18
2018-05-12T13:15:32.158Z,24.11
2018-05-12T13:17:59.585Z,23.97
2018-05-12T13:20:27.003Z,24.19
2018-05-12T13:22:54.395Z,24.18
2018-05-12T13:25:21.801Z,24.18
2018-05-12T13:27:49.201Z,24.28
2018-05-12T13:30:16.597Z,24.70
2018-05-12T13:32:43.997Z,24.80
2018-05-12T13:35:11.455Z,24.95
2018-05-12T13:37:38.841Z,24.91
2018-05-12T13:40:06.237Z,24.96
2018-05-12T13:42:33.629Z,25.05
2018-05-12T13:45:01.036Z,25.29
2018-05-12T13:47:28.499Z,25.26
2018-05-12T13:49:55.974Z,25.11
2018-05-12T13:52:23.357Z,25.10
2018-05-12T13:54:50.824Z,24.78
2018-05-12T13:57:18.285Z,24.58
2018-05-12T13:59:46.385Z,24.48
2018-05-12T14:02:13.782Z,24.21
2018-05-12T14:04:41.280Z,24.08
2018-05-12T14:07:08.660Z,23.86
2018-05-12T14:09:36.069Z,23.81
2018-05-12T14:12:03.612Z,23.98
2018-05-12T14:14:31.000Z,24.22
2018-05-12T14:16:58.415Z,24.40
2018-05-12T14:19:25.784Z,24.32
2018-05-12T14:21:53.237Z,24.02
2018-05-12T14:24:20.619Z,24.07
2018-05-12T14:26:48.005Z,23.96
2018-05-12T14:29:15.393Z,23.89
2018-05-12T14:31:42.806Z,23.87
2018-05-12T14:34:10.255Z,23.80
2018-05-12T14:36:37.653Z,23.67
2018-05-12T14:39:05.081Z,23.56
2018-05-12T14:41:32.484Z,23.54
2018-05-12T14:43:59.894Z,23.63
2018-05-12T14:46:27.281Z,23.90
2018-05-12T14:48:54.689Z,24.10
2018-05-12T14:51:22.094Z,24.22
2018-05-12T14:53:49.474Z,24.45
2018-05-12T14:56:16.881Z,24.66
2018-05-12T14:58:44.265Z,24.59
2018-05-12T15:01:11.671Z,24.67
2018-05-12T15:03:39.143Z,24.75
2018-05-12T15:06:06.590Z,24.94
2018-05-12T15:08:34.049Z,24.84
2018-05-12T15:11:01.452Z,24.50
2018-05-12T15:13:28.906Z,24.18
2018-05-12T15:15:56.306Z,24.26
2018-05-12T15:18:23.706Z,24.40
2018-05-12T15:20:51.184Z,24.51
2018-05-12T15:23:18.581Z,24.56
2018-05-12T15:25:45.990Z,24.65
2018-05-12T15:28:13.389Z,24.68
2018-05-12T15:30:40.799Z,24.78
2018-05-12T15:33:08.201Z,24.75
2018-05-12T15:35:35.631Z,24.78
2018-05-12T15:38:03.012Z,24.49
2018-05-12T15:40:30.418Z,24.18
2018-05-12T15:42:57.921Z,23.90
2018-05-12T15:45:25.349Z,23.53
2018-05-12T15:47:52.745Z,23.35
2018-05-12T15:50:20.156Z,23.14
2018-05-12T15:52:47.645Z,23.45
2018-05-12T15:55:15.077Z,23.69
2018-05-12T15:57:42.588Z,23.89
2018-05-12T16:00:09.977Z,24.18
2018-05-12T16:02:37.479Z,24.23
2018-05-12T16:05:04.871Z,24.04
2018-05-12T16:07:32.278Z,23.92
2018-05-12T16:09:59.685Z,24.02
2018-05-12T16:12:27.098Z,24.12
2018-05-12T16:14:54.485Z,24.19
2018-05-12T16:17:21.906Z,24.28
2018-05-12T16:19:49.357Z,24.02
2018-05-12T16:22:16.752Z,24.12
2018-05-12T16:24:44.183Z,24.04
2018-05-12T16:27:11.592Z,23.89
2018-05-12T16:29:39.081Z,23.91
2018-05-12T16:32:06.540Z,23.89
2018-05-12T16:34:33.997Z,23.67
2018-05-12T16:37:01.442Z,23.46
2018-05-12T16:39:28.829Z,23.22
2018-05-12T16:41:56.220Z,23.11
2018-05-12T16:44:23.615Z,23.27
2018-05-12T16:46:51.085Z,23.38
2018-05-12T16:49:18.545Z,23.45
2018-05-12T16:51:45.956Z,23.31
2018-05-12T16:54:13.357Z,23.16
2018-05-12T16:56:40.741Z,23.06
2018-05-12T16:59:08.188Z,22.89
2018-05-12T17:01:35.629Z,23.03
2018-05-12T17:04:03.025Z,23.19
2018-05-12T17:06:30.442Z,23.40
2018-05-12T17:08:57.889Z,23.43
2018-05-12T17:11:25.301Z,23.17
2018-05-12T17:13:52.734Z,23.05
2018-05-12T17:16:20.128Z,22.96
2018-05-12T17:18:47.519Z,22.70
2018-05-12T17:21:14.994Z,22.69
2018-05-12T17:23:42.377Z,22.78
2018-05-12T17:26:09.792Z,22.82
2018-05-12T17:28:37.249Z,22.76
2018-05-12T17:31:04.649Z,22.81
2018-05-12T17:33:32.062Z,22.78
2018-05-12T17:35:59.458Z,22.56
2018-05-12T17:38:26.841Z,22.60
2018-05-12T17:40:54.328Z,22.43
2018-05-12T17:43:21.790Z,22.36
2018-05-12T17:45:49.247Z,22.34
2018-05-12T17:48:16.641Z,22.39
2018-05-12T17:50:44.029Z,22.42
2018-05-12T17:53:11.678Z,22.35
2018-05-12T17:55:39.081Z,22.43
2018-05-12T17:58:06.547Z,22.48
2018-05-12T18:00:33.943Z,22.43
2018-05-12T18:03:01.338Z,22.34
2018-05-12T18:05:28.801Z,22.21
2018-05-12T18:07:56.201Z,22.17
2018-05-12T18:10:23.633Z,22.18
2018-05-12T18:12:51.054Z,22.22
2018-05-12T18:15:18.453Z,22.16
2018-05-12T18:17:45.879Z,22.13
2018-05-12T18:20:13.283Z,22.17
2018-05-12T18:22:40.701Z,22.25
2018-05-12T18:25:08.157Z,22.22
2018-05-12T18:27:35.549Z,22.25
2018-05-12T18:30:02.961Z,22.27
2018-05-12T18:32:30.453Z,22.32
2018-05-12T18:34:57.837Z,22.30
2018-05-12T18:37:25.266Z,22.21
2018-05-12T18:39:52.649Z,22.06
2018-05-12T18:42:20.045Z,21.78
2018-05-12T18:44:47.425Z,21.66
2018-05-12T18:47:14.865Z,21.59
2018-05-12T18:49:42.269Z,21.48
2018-05-12T18:52:09.677Z,21.35
2018-05-12T18:54:37.073Z,21.20
2018-05-12T18:57:04.481Z,21.28
2018-05-12T18:59:31.940Z,21.30
2018-05-12T19:01:59.342Z,21.36
2018-05-12T19:04:26.730Z,21.20
2018-05-12T19:06:54.218Z,21.08
2018-05-12T19:09:21.675Z,20.99
2018-05-12T19:11:49.180Z,21.05
2018-05-12T19:14:16.715Z,21.06
2018-05-12T19:16:44.174Z,20.97
2018-05-12T19:19:11.570Z,20.89
2018-05-12T19:21:38.963Z,20.78
2018-05-12T19:24:06.350Z,20.72
2018-05-12T19:26:33.773Z,20.74
2018-05-12T19:29:01.309Z,20.66
2018-05-12T19:31:28.736Z,20.72
2018-05-12T19:33:56.255Z,20.67
2018-05-12T19:36:23.658Z,20.48
2018-05-12T19:38:51.081Z,20.41
2018-05-12T19:41:18.525Z,20.36
2018-05-12T19:43:46.065Z,20.26
2018-05-12T19:46:13.451Z,20.18
2018-05-12T19:48:40.905Z,20.02
2018-05-12T19:51:08.286Z,19.96
2018-05-12T19:53:35.701Z,19.84
2018-05-12T19:56:03.157Z,19.78
2018-05-12T19:58:30.604Z,19.72
2018-05-12T20:00:58.015Z,19.65
2018-05-12T20:03:25.405Z,19.60
2018-05-12T20:05:52.882Z,19.55
2018-05-12T20:08:20.357Z,19.56
2018-05-12T20:10:47.797Z,19.43
2018-05-12T20:13:15.341Z,19.36
2018-05-12T20:15:42.664Z,19.24
2018-05-12T20:18:10.079Z,19.40
2018-05-12T20:20:37.494Z,19.22
2018-05-12T20:23:05.043Z,19.33
2018-05-12T20:25:32.450Z,19.27
2018-05-12T20:27:59.908Z,19.06
2018-05-12T20:30:27.360Z,18.91
2018-05-12T20:32:54.829Z,18.84
2018-05-12T20:35:22.244Z,18.73
2018-05-12T20:37:49.745Z,18.87
2018-05-12T20:40:17.134Z,18.75
2018-05-12T20:42:44.624Z,18.71
2018-05-12T20:45:12.015Z,18.58
2018-05-12T20:47:39.413Z,18.49
2018-05-12T20:50:06.811Z,18.44
2018-05-12T20:52:34.233Z,18.47
2018-05-12T20:55:01.630Z,18.41
2018-05-12T20:57:29.117Z,18.33
2018-05-12T20:59:56.655Z,18.19
2018-05-12T21:02:24.052Z,18.18
2018-05-12T21:04:51.448Z,18.22
2018-05-12T21:07:18.854Z,18.13
2018-05-12T21:09:46.269Z,17.99
2018-05-12T21:12:13.668Z,18.02
2018-05-12T21:14:41.086Z,18.00
2018-05-12T21:17:08.563Z,18.00
2018-05-12T21:19:36.006Z,17.97
2018-05-12T21:22:03.393Z,18.03
2018-05-12T21:24:30.808Z,18.06
2018-05-12T21:26:59.005Z,18.00
2018-05-12T21:29:26.416Z,17.99
2018-05-12T21:31:53.825Z,18.02
2018-05-12T21:34:21.251Z,17.91
2018-05-12T21:36:48.655Z,17.94
2018-05-12T21:39:16.037Z,17.96
2018-05-12T21:41:43.427Z,17.97
2018-05-12T21:44:10.829Z,17.90
2018-05-12T21:46:38.250Z,17.92
2018-05-12T21:49:05.696Z,17.93
2018-05-12T21:51:33.092Z,17.93
2018-05-12T21:54:00.586Z,17.90
2018-05-12T21:56:28.005Z,17.91
2018-05-12T21:58:55.425Z,17.91
2018-05-12T22:01:22.801Z,17.94
2018-05-12T22:03:50.210Z,17.88
2018-05-12T22:06:17.617Z,17.94
2018-05-12T22:08:45.005Z,17.84
2018-05-12T22:11:12.467Z,17.83
2018-05-12T22:13:39.926Z,17.87
2018-05-12T22:16:07.320Z,17.88
2018-05-12T22:18:34.776Z,17.80
2018-05-12T22:21:02.116Z,17.83
2018-05-12T22:23:29.521Z,17.85
2018-05-12T22:25:56.904Z,17.81
2018-05-12T22:28:24.406Z,17.80
2018-05-12T22:30:51.857Z,17.71
2018-05-12T22:33:19.256Z,17.73
2018-05-12T22:35:46.680Z,17.56
2018-05-12T22:38:14.073Z,17.60
2018-05-12T22:40:41.472Z,17.58
2018-05-12T22:43:08.955Z,17.61
2018-05-12T22:45:36.474Z,17.58
2018-05-12T22:48:03.881Z,17.54
2018-05-12T22:50:31.532Z,17.49
2018-05-12T22:52:59.017Z,17.52
2018-05-12T22:55:26.452Z,17.46
2018-05-12T22:57:53.901Z,17.48
2018-05-12T23:00:22.078Z,17.43
2018-05-12T23:02:49.469Z,17.44
2018-05-12T23:05:16.860Z,17.44
2018-05-12T23:07:44.253Z,17.30
2018-05-12T23:10:11.689Z,17.30
2018-05-12T23:12:39.058Z,17.22
2018-05-12T23:15:06.464Z,17.17
2018-05-12T23:17:33.898Z,17.18
2018-05-12T23:20:01.372Z,17.22
2018-05-12T23:22:28.756Z,17.26
2018-05-12T23:24:56.343Z,17.24
2018-05-12T23:27:23.697Z,17.12
2018-05-12T23:29:51.105Z,17.12
2018-05-12T23:32:18.594Z,17.07
2018-05-12T23:34:46.082Z,17.12
2018-05-12T23:37:14.438Z,17.02
2018-05-12T23:39:41.922Z,17.01
2018-05-12T23:42:09.329Z,17.02
2018-05-12T23:44:36.741Z,17.09
2018-05-12T23:47:04.153Z,17.25
2018-05-12T23:49:31.629Z,17.26
2018-05-12T23:51:59.121Z,17.15
2018-05-12T23:54:26.979Z,17.15
2018-05-12T23:56:54.440Z,17.20
2018-05-12T23:59:21.841Z,17.08
